Terminal Aerodrome Forecast
Issued by NWS

Home | Current Version | Previous Version | Text Only | Print | Product List | Glossary On
Versions: 1 2 3 4 5 6 7 8 9 10 11 12 13 14 15 16 17 18 19 20 21 22 23 24
400
FTUS44 KEPZ 231159
TAFDMN
TAF
KDMN 231159Z 2312/2412 01007KT P6SM SCT060 BKN150
     FM232200 12010KT P6SM BKN050
      TEMPO 2322/2402 VRB20G40KT TSRA BKN040CB
     FM240300 02010KT P6SM VCSH BKN100=

USA.gov is the U.S. government's official web portal to all federal, state and local government web resources and services.